Time;durP1;ratioP1;P1;durP2;ratioP2;P2;SDS_P1;SDS_P2;PMS_P1;PMS_P2;Temp;Humidity;BMP_temperature;BMP_pressure;BME280_temperature;BME280_humidity;BME280_pressure;Samples;Min_cycle;Max_cycle;Signal;HPM_P1;HPM_P2
2023/03/15 00:02:07;;;;;;;;;;;;;;;6.06;58.91;94171.97;5115272;28;1027;-58
2023/03/15 00:04:33;;;;;;;;;;;;;;;6.10;59.56;94175.16;5113836;28;1035;-58
2023/03/15 00:06:59;;;;;;;;;;;;;;;5.97;59.37;94175.56;5113843;28;1361;-58
2023/03/15 00:09:26;;;;;;;;;;;;;;;5.99;60.40;94171.75;5113553;28;1115;-58
2023/03/15 00:11:55;;;;;;;;;;;;;;;5.98;60.80;94175.41;5115073;28;1031;-58
2023/03/15 00:14:21;;;;;;;;;;;;;;;5.74;59.64;94180.53;5114516;28;1058;-57
2023/03/15 00:16:47;;;;;;;;;;;;;;;5.74;60.32;94172.56;5114910;28;1008;-58
2023/03/15 00:19:15;;;;;;;;;;;;;;;5.87;60.50;94179.13;5114461;27;1905;-58
2023/03/15 00:21:42;;;;;;;;;;;;;;;6.00;60.31;94180.56;5114529;28;1063;-58
2023/03/15 00:24:10;;;;;;;;;;;;;;;6.17;59.69;94174.34;5114444;28;1217;-58
2023/03/15 00:26:36;;;;;;;;;;;;;;;6.24;59.05;94169.22;5114509;28;1607;-59
2023/03/15 00:29:02;;;;;;;;;;;;;;;6.08;59.60;94163.88;5114298;28;1029;-58
2023/03/15 00:31:28;;;;;;;;;;;;;;;6.05;59.93;94157.88;5114350;28;1128;-58
2023/03/15 00:33:54;;;;;;;;;;;;;;;6.11;59.80;94163.53;5114301;28;1045;-58
2023/03/15 00:36:24;;;;;;;;;;;;;;;6.31;59.57;94172.94;5114512;28;1041;-58
2023/03/15 00:38:54;;;;;;;;;;;;;;;6.37;59.24;94172.28;5114248;28;1910;-58
2023/03/15 00:41:20;;;;;;;;;;;;;;;6.08;60.33;94162.03;5114133;28;1072;-58
2023/03/15 00:43:47;;;;;;;;;;;;;;;5.87;60.59;94155.25;5114094;28;1240;-58
2023/03/15 00:46:13;;;;;;;;;;;;;;;5.99;59.82;94152.38;5114365;28;1047;-58
2023/03/15 00:48:39;;;;;;;;;;;;;;;6.04;59.83;94153.56;5114094;28;1084;-58
2023/03/15 00:51:13;;;;;;;;;;;;;;;6.22;59.32;94158.81;5114041;28;1064;-58
2023/03/15 00:53:41;;;;;;;;;;;;;;;6.24;60.12;94154.16;5114392;28;1027;-58
2023/03/15 00:56:12;;;;;;;;;;;;;;;6.10;60.54;94153.91;5113850;28;1045;-58
2023/03/15 00:58:38;;;;;;;;;;;;;;;6.04;60.95;94148.25;5114080;28;1909;-58
2023/03/15 01:01:08;;;;;;;;;;;;;;;5.93;61.03;94147.66;5113878;28;1204;-57
2023/03/15 01:03:34;;;;;;;;;;;;;;;5.99;60.90;94150.53;5113951;28;1035;-58
2023/03/15 01:06:04;;;;;;;;;;;;;;;6.10;60.56;94145.97;5114014;28;1084;-58
2023/03/15 01:08:30;;;;;;;;;;;;;;;6.10;60.48;94140.66;5112531;28;1057;-58
2023/03/15 01:11:00;;;;;;;;;;;;;;;6.10;60.58;94138.81;5113764;28;1017;-57
2023/03/15 01:13:26;;;;;;;;;;;;;;;6.20;61.01;94138.69;5113847;28;961;-58
2023/03/15 01:15:52;;;;;;;;;;;;;;;6.29;60.66;94129.78;5113829;28;1039;-58
2023/03/15 01:18:18;;;;;;;;;;;;;;;6.37;60.83;94127.16;5113501;28;1905;-58
2023/03/15 01:20:44;;;;;;;;;;;;;;;6.44;61.06;94122.03;5113661;28;1108;-58
2023/03/15 01:23:10;;;;;;;;;;;;;;;6.25;62.00;94107.22;5113885;28;996;-58
2023/03/15 01:25:36;;;;;;;;;;;;;;;6.27;61.54;94105.22;5113499;28;1533;-58
2023/03/15 01:28:02;;;;;;;;;;;;;;;6.11;62.55;94102.50;5113533;28;1104;-57
2023/03/15 01:30:28;;;;;;;;;;;;;;;6.22;61.99;94099.56;5113311;28;1104;-58
2023/03/15 01:32:54;;;;;;;;;;;;;;;6.43;61.33;94099.13;5113812;28;1039;-58
2023/03/15 01:35:20;;;;;;;;;;;;;;;6.55;61.16;94102.34;5117649;28;1000;-58
2023/03/15 01:37:50;;;;;;;;;;;;;;;6.60;61.44;94100.00;5117722;28;2018;-58
2023/03/15 01:40:16;;;;;;;;;;;;;;;6.55;63.15;94097.84;5117481;28;1045;-58
2023/03/15 01:42:53;;;;;;;;;;;;;;;6.48;62.14;94090.69;5117697;28;1104;-58
2023/03/15 01:45:37;;;;;;;;;;;;;;;6.47;62.58;94086.34;5117866;28;1024;-58
2023/03/15 01:48:04;;;;;;;;;;;;;;;6.63;62.35;94087.22;5117565;28;887;-58
2023/03/15 01:50:30;;;;;;;;;;;;;;;6.75;61.88;94089.56;5117409;28;1150;-58
2023/03/15 01:52:56;;;;;;;;;;;;;;;6.82;62.77;94083.44;5117504;28;1048;-58
2023/03/15 01:55:22;;;;;;;;;;;;;;;6.89;62.70;94088.13;5117689;28;1031;-58
2023/03/15 01:57:51;;;;;;;;;;;;;;;6.94;61.89;94099.06;5117186;28;2031;-58
2023/03/15 02:00:18;;;;;;;;;;;;;;;6.92;61.96;94096.56;5117585;28;964;-58
2023/03/15 02:02:56;;;;;;;;;;;;;;;6.93;62.56;94092.94;5117560;28;1023;-58
2023/03/15 02:05:24;;;;;;;;;;;;;;;6.93;64.02;94094.75;5117182;27;1060;-58
2023/03/15 02:07:53;;;;;;;;;;;;;;;6.71;63.80;94083.75;5117198;28;1057;-58
2023/03/15 02:10:24;;;;;;;;;;;;;;;6.45;64.30;94082.06;5117382;28;1163;-58
2023/03/15 02:12:51;;;;;;;;;;;;;;;6.63;63.35;94089.06;5117060;28;1056;-58
2023/03/15 02:15:17;;;;;;;;;;;;;;;6.73;64.54;94091.56;5117011;28;1084;-58
2023/03/15 02:17:45;;;;;;;;;;;;;;;6.75;64.66;94087.75;5116861;28;1917;-58
2023/03/15 02:20:26;;;;;;;;;;;;;;;6.73;65.45;94072.97;5116910;27;1099;-58
2023/03/15 02:22:54;;;;;;;;;;;;;;;6.51;64.27;94058.50;5117121;28;1031;-58
2023/03/15 02:25:28;;;;;;;;;;;;;;;6.40;64.75;94049.03;5116961;28;1342;-58
2023/03/15 02:27:55;;;;;;;;;;;;;;;6.30;65.54;94051.81;5115555;28;1120;-58
2023/03/15 02:30:21;;;;;;;;;;;;;;;6.53;64.66;94048.56;5116650;28;1031;-58
2023/03/15 02:32:48;;;;;;;;;;;;;;;6.60;65.00;94053.03;5116727;28;1123;-58
2023/03/15 02:35:24;;;;;;;;;;;;;;;6.65;65.15;94055.19;5116877;28;1214;-58
2023/03/15 02:37:50;;;;;;;;;;;;;;;6.50;65.89;94047.03;5116795;28;2019;-58
2023/03/15 02:40:17;;;;;;;;;;;;;;;6.37;66.16;94036.88;5116800;28;992;-58
2023/03/15 02:42:44;;;;;;;;;;;;;;;6.36;65.73;94048.50;5116611;28;1043;-58
2023/03/15 02:45:10;;;;;;;;;;;;;;;6.37;66.30;94036.06;5115924;28;1046;-58
2023/03/15 02:47:37;;;;;;;;;;;;;;;6.31;66.95;94036.72;5116705;28;1032;-58
2023/03/15 02:50:04;;;;;;;;;;;;;;;6.13;66.47;94023.53;5116401;28;1115;-58
2023/03/15 02:52:30;;;;;;;;;;;;;;;5.91;67.21;94015.16;5116219;28;1048;-58
2023/03/15 02:54:56;;;;;;;;;;;;;;;6.03;67.06;94013.94;5116529;28;1055;-58
2023/03/15 02:57:22;;;;;;;;;;;;;;;6.25;67.51;94024.91;5116262;28;1914;-58
2023/03/15 02:59:51;;;;;;;;;;;;;;;6.40;66.96;94020.63;5116194;28;1098;-58
2023/03/15 03:02:17;;;;;;;;;;;;;;;6.50;67.27;94019.66;5116261;28;1011;-58
2023/03/15 03:04:44;;;;;;;;;;;;;;;6.51;67.47;94016.03;5116392;28;1032;-58
2023/03/15 03:07:10;;;;;;;;;;;;;;;6.47;67.34;94022.63;5116375;27;1059;-58
2023/03/15 03:09:36;;;;;;;;;;;;;;;6.15;67.67;94016.28;5115946;28;1026;-58
2023/03/15 03:12:02;;;;;;;;;;;;;;;6.00;68.18;94013.41;5114560;28;1108;-58
2023/03/15 03:14:28;;;;;;;;;;;;;;;6.00;68.46;94011.59;5116005;28;1042;-58
2023/03/15 03:16:54;;;;;;;;;;;;;;;6.10;68.21;94008.78;5115857;28;1088;-58
2023/03/15 03:19:24;;;;;;;;;;;;;;;6.34;67.50;94004.53;5115851;28;2380;-58
2023/03/15 03:21:52;;;;;;;;;;;;;;;6.49;67.66;94002.91;5116043;28;972;-58
2023/03/15 03:24:18;;;;;;;;;;;;;;;6.56;68.13;94003.06;5114497;28;1040;-58
2023/03/15 03:26:47;;;;;;;;;;;;;;;6.59;68.75;93998.25;5115612;28;1346;-58
2023/03/15 03:29:16;;;;;;;;;;;;;;;6.54;69.23;94003.22;5114637;28;968;-58
2023/03/15 03:31:43;;;;;;;;;;;;;;;6.57;68.60;93999.44;5115859;28;1039;-58
2023/03/15 03:34:11;;;;;;;;;;;;;;;6.48;69.49;93992.44;5115626;28;999;-58
2023/03/15 03:36:37;;;;;;;;;;;;;;;6.13;69.83;93986.41;5097567;28;1044;-58
2023/03/15 03:39:03;;;;;;;;;;;;;;;6.12;69.91;93982.09;5115355;28;1992;-58
2023/03/15 03:41:29;;;;;;;;;;;;;;;6.23;70.48;93990.56;5115345;28;1044;-58
2023/03/15 03:43:55;;;;;;;;;;;;;;;6.32;71.30;93988.78;5115407;28;1007;-58
2023/03/15 03:46:21;;;;;;;;;;;;;;;6.37;71.01;93983.78;5115209;28;1028;-58
2023/03/15 03:48:47;;;;;;;;;;;;;;;6.19;70.92;93985.75;5115352;28;1004;-58
2023/03/15 03:51:13;;;;;;;;;;;;;;;6.00;71.98;93982.41;5115179;28;1043;-58
2023/03/15 03:53:39;;;;;;;;;;;;;;;6.09;71.72;93979.75;5115146;28;1049;-58
2023/03/15 03:56:06;;;;;;;;;;;;;;;6.22;71.81;93980.13;5114988;27;1088;-58
2023/03/15 03:58:32;;;;;;;;;;;;;;;6.27;71.68;93982.28;5113987;28;1901;-58
2023/03/15 04:00:58;;;;;;;;;;;;;;;6.24;70.83;93978.13;5115268;28;1028;-58
2023/03/15 04:03:26;;;;;;;;;;;;;;;6.31;70.95;93981.78;5114869;28;1028;-58
2023/03/15 04:05:53;;;;;;;;;;;;;;;6.35;70.24;93977.81;5115002;28;968;-58
2023/03/15 04:08:19;;;;;;;;;;;;;;;6.35;70.78;93979.66;5113594;28;1037;-58
2023/03/15 04:10:48;;;;;;;;;;;;;;;6.10;72.13;93968.16;5114994;28;1045;-58
2023/03/15 04:13:14;;;;;;;;;;;;;;;6.12;71.84;93959.03;5114590;28;917;-58
2023/03/15 04:15:40;;;;;;;;;;;;;;;6.17;71.66;93956.72;5114998;28;1209;-58
2023/03/15 04:18:06;;;;;;;;;;;;;;;6.19;71.42;93957.41;5114564;28;1913;-58
2023/03/15 04:20:33;;;;;;;;;;;;;;;6.14;72.18;93964.19;5114611;28;977;-58
2023/03/15 04:22:59;;;;;;;;;;;;;;;5.87;72.65;93958.13;5114641;28;1064;-58
2023/03/15 04:25:26;;;;;;;;;;;;;;;5.79;72.57;93958.09;5114335;28;1535;-58
2023/03/15 04:27:58;;;;;;;;;;;;;;;5.86;72.13;93948.50;5114322;28;1080;-58
2023/03/15 04:30:25;;;;;;;;;;;;;;;5.93;71.70;93946.84;5114364;28;1025;-58
2023/03/15 04:32:57;;;;;;;;;;;;;;;5.91;72.02;93948.84;5113467;28;1004;-58
2023/03/15 04:35:24;;;;;;;;;;;;;;;5.89;72.15;93942.06;5114307;28;1003;-58
2023/03/15 04:37:50;;;;;;;;;;;;;;;5.87;72.09;93955.47;5114203;28;1987;-58
2023/03/15 04:40:17;;;;;;;;;;;;;;;5.61;72.60;93961.66;5114380;28;965;-58
2023/03/15 04:42:43;;;;;;;;;;;;;;;5.52;72.40;93957.34;5114412;28;973;-57
2023/03/15 04:45:09;;;;;;;;;;;;;;;5.48;72.75;93955.97;5114109;28;1093;-59
2023/03/15 04:47:36;;;;;;;;;;;;;;;5.48;72.56;93956.84;5114454;28;988;-58
2023/03/15 04:50:02;;;;;;;;;;;;;;;5.16;73.30;93970.75;5114074;27;1027;-58
2023/03/15 04:52:28;;;;;;;;;;;;;;;4.97;72.97;93966.50;5113872;28;1120;-58
2023/03/15 04:54:54;;;;;;;;;;;;;;;4.83;73.97;93962.59;5114170;28;1043;-58
2023/03/15 04:57:20;;;;;;;;;;;;;;;4.92;74.37;93968.78;5113957;28;1909;-58
2023/03/15 04:59:46;;;;;;;;;;;;;;;5.15;74.00;93974.38;5113905;28;1112;-58
2023/03/15 05:02:12;;;;;;;;;;;;;;;5.23;73.54;93963.00;5113932;28;1121;-58
2023/03/15 05:04:38;;;;;;;;;;;;;;;5.04;73.60;93970.16;5112630;28;1049;-58
2023/03/15 05:07:04;;;;;;;;;;;;;;;4.92;74.09;93971.44;5113945;28;980;-57
2023/03/15 05:09:36;;;;;;;;;;;;;;;5.19;73.32;93961.66;5113303;28;1057;-58
2023/03/15 05:12:03;;;;;;;;;;;;;;;5.40;73.25;93950.66;5113908;28;1012;-55
2023/03/15 05:14:29;;;;;;;;;;;;;;;5.39;72.86;93952.50;5113913;28;1020;-57
2023/03/15 05:16:57;;;;;;;;;;;;;;;5.36;73.20;93951.97;5113808;28;985;-58
2023/03/15 05:19:23;;;;;;;;;;;;;;;5.47;72.57;93949.84;5113594;28;1906;-58
2023/03/15 05:25:11;;;;;;;;;;;;;;;5.50;72.20;93947.88;5113738;28;1224;-58
2023/03/15 05:27:37;;;;;;;;;;;;;;;5.24;73.18;93952.25;5113358;28;1211;-58
2023/03/15 05:30:06;;;;;;;;;;;;;;;5.33;73.73;93958.44;5113445;28;1156;-58
2023/03/15 05:32:38;;;;;;;;;;;;;;;5.63;73.42;93969.47;5113358;28;1036;-59
2023/03/15 05:35:05;;;;;;;;;;;;;;;5.87;72.67;93966.09;5113652;28;1052;-58
2023/03/15 05:37:31;;;;;;;;;;;;;;;5.71;73.83;93961.56;5112378;28;1901;-58
2023/03/15 05:39:58;;;;;;;;;;;;;;;5.64;74.02;93964.00;5113572;28;1047;-58
2023/03/15 05:42:28;;;;;;;;;;;;;;;5.85;73.13;93968.06;5113297;28;1028;-58
2023/03/15 05:44:54;;;;;;;;;;;;;;;6.08;72.36;93965.66;5113430;28;952;-57
2023/03/15 05:47:21;;;;;;;;;;;;;;;6.41;70.93;93969.22;5113347;28;1032;-57
2023/03/15 05:49:47;;;;;;;;;;;;;;;6.73;69.73;93980.81;5113663;28;1040;-58
2023/03/15 05:52:13;;;;;;;;;;;;;;;6.98;69.41;93971.03;5113310;28;1048;-58
2023/03/15 05:54:39;;;;;;;;;;;;;;;7.08;69.21;93962.88;5113271;28;1041;-58
2023/03/15 05:57:05;;;;;;;;;;;;;;;7.18;70.20;93963.50;5113353;28;1010;-59
2023/03/15 05:59:34;;;;;;;;;;;;;;;7.24;70.44;93970.78;5113199;28;2012;-58
2023/03/15 06:02:00;;;;;;;;;;;;;;;7.33;69.84;93966.31;5113505;28;1100;-58
2023/03/15 06:04:26;;;;;;;;;;;;;;;7.35;68.49;93958.97;5113408;28;977;-58
2023/03/15 06:06:52;;;;;;;;;;;;;;;7.38;69.31;93955.13;5113516;28;1014;-56
2023/03/15 06:09:19;;;;;;;;;;;;;;;7.47;68.86;93958.63;5113294;28;957;-57
2023/03/15 06:11:45;;;;;;;;;;;;;;;7.53;68.04;93963.25;5113133;28;1040;-57
2023/03/15 06:14:11;;;;;;;;;;;;;;;7.60;67.21;93965.03;5113371;28;1019;-57
2023/03/15 06:16:37;;;;;;;;;;;;;;;7.69;67.69;93963.19;5111996;28;1041;-57
2023/03/15 06:19:03;;;;;;;;;;;;;;;7.79;67.65;93958.47;5112163;28;1990;-58
2023/03/15 06:21:29;;;;;;;;;;;;;;;7.70;68.24;93964.00;5115280;28;1551;-58
2023/03/15 06:23:55;;;;;;;;;;;;;;;7.85;67.84;93972.94;5117190;28;1060;-58
2023/03/15 06:26:21;;;;;;;;;;;;;;;7.92;68.05;93967.75;5115418;28;1640;-59
2023/03/15 06:28:48;;;;;;;;;;;;;;;7.91;68.16;93961.59;5116812;28;1207;-57
2023/03/15 06:31:14;;;;;;;;;;;;;;;7.91;68.25;93964.28;5116745;28;1069;-58
2023/03/15 06:33:40;;;;;;;;;;;;;;;8.06;66.33;93974.16;5116824;28;2008;-58
2023/03/15 06:36:06;;;;;;;;;;;;;;;8.11;66.50;93980.63;5116890;27;1039;-58
2023/03/15 06:38:33;;;;;;;;;;;;;;;8.08;67.37;93982.81;5115734;28;1983;-58
2023/03/15 06:41:00;;;;;;;;;;;;;;;7.94;67.96;93981.72;5116605;28;1266;-58
2023/03/15 06:43:26;;;;;;;;;;;;;;;7.92;68.39;93978.41;5116820;28;1020;-58
2023/03/15 06:45:54;;;;;;;;;;;;;;;8.08;68.10;93978.31;5116765;28;1078;-58
2023/03/15 06:48:21;;;;;;;;;;;;;;;8.15;66.97;93978.44;5116569;28;1016;-58
2023/03/15 06:50:47;;;;;;;;;;;;;;;8.16;67.75;93980.13;5116462;28;1037;-58
2023/03/15 06:53:13;;;;;;;;;;;;;;;8.13;67.78;93975.13;5116717;28;981;-58
2023/03/15 06:55:39;;;;;;;;;;;;;;;8.14;67.15;93988.28;5116195;28;1166;-58
2023/03/15 06:58:05;;;;;;;;;;;;;;;8.33;66.86;93981.69;5116477;28;1983;-58
2023/03/15 07:00:31;;;;;;;;;;;;;;;8.58;65.93;93973.56;5116203;28;1587;-58
2023/03/15 07:02:58;;;;;;;;;;;;;;;8.72;64.96;93963.94;5116448;28;972;-57
2023/03/15 07:05:24;;;;;;;;;;;;;;;8.91;63.69;93962.63;5116370;27;968;-59
2023/03/15 07:07:50;;;;;;;;;;;;;;;9.12;62.81;93961.94;5116126;28;1025;-59
2023/03/15 07:10:16;;;;;;;;;;;;;;;9.12;63.10;93973.41;5114664;28;1040;-59
2023/03/15 07:12:42;;;;;;;;;;;;;;;9.10;63.55;93967.44;5116332;28;968;-59
2023/03/15 07:15:08;;;;;;;;;;;;;;;8.98;63.75;93967.06;5114994;28;1095;-59
2023/03/15 07:17:34;;;;;;;;;;;;;;;9.01;63.10;93981.88;5115944;28;2020;-58
2023/03/15 07:20:00;;;;;;;;;;;;;;;9.07;62.97;93972.31;5116135;28;996;-58
2023/03/15 07:22:26;;;;;;;;;;;;;;;8.98;63.92;93971.56;5115765;28;1104;-59
2023/03/15 07:24:52;;;;;;;;;;;;;;;8.99;63.13;93966.06;5115937;28;1031;-59
2023/03/15 07:27:19;;;;;;;;;;;;;;;8.97;63.70;93961.91;5095325;28;1115;-59
2023/03/15 07:29:45;;;;;;;;;;;;;;;9.05;63.70;93964.50;5095368;28;1100;-59
2023/03/15 07:32:11;;;;;;;;;;;;;;;9.10;63.23;93962.09;5095354;28;983;-58
2023/03/15 07:34:37;;;;;;;;;;;;;;;9.01;62.79;93955.22;5094070;28;1052;-58
2023/03/15 07:37:03;;;;;;;;;;;;;;;9.08;63.74;93953.47;5095131;28;1095;-59
2023/03/15 07:39:31;;;;;;;;;;;;;;;9.13;63.83;93958.28;5093682;28;1992;-58
2023/03/15 07:41:58;;;;;;;;;;;;;;;9.21;63.98;93954.69;5095417;28;1025;-59
2023/03/15 07:44:24;;;;;;;;;;;;;;;9.68;62.86;93953.53;5095067;28;1123;-59
2023/03/15 07:46:50;;;;;;;;;;;;;;;9.88;62.20;93962.59;5095226;28;1043;-59
2023/03/15 07:49:17;;;;;;;;;;;;;;;9.90;61.99;93960.59;5094791;28;926;-59
2023/03/15 07:51:43;;;;;;;;;;;;;;;9.99;62.27;93963.97;5095199;28;981;-59
2023/03/15 07:54:09;;;;;;;;;;;;;;;9.60;60.99;93959.78;5093851;28;1013;-59
2023/03/15 07:56:35;;;;;;;;;;;;;;;9.40;63.81;93951.47;5108619;28;1048;-59
2023/03/15 07:59:01;;;;;;;;;;;;;;;9.50;63.09;93964.53;5113918;28;1973;-60
2023/03/15 08:01:27;;;;;;;;;;;;;;;9.49;62.22;93950.38;5113938;28;1039;-60
2023/03/15 08:03:53;;;;;;;;;;;;;;;9.42;62.75;93957.47;5115020;28;1056;-60
2023/03/15 08:06:19;;;;;;;;;;;;;;;9.32;62.36;93947.06;5114991;28;1055;-60
2023/03/15 08:08:45;;;;;;;;;;;;;;;9.37;63.66;93941.16;5114749;28;1089;-60
2023/03/15 08:11:12;;;;;;;;;;;;;;;9.36;62.59;93939.53;5115093;28;1012;-60
2023/03/15 08:13:38;;;;;;;;;;;;;;;9.48;62.26;93940.72;5115232;28;961;-60
2023/03/15 08:16:04;;;;;;;;;;;;;;;9.61;61.51;93945.41;5114875;28;1253;-60
2023/03/15 08:18:30;;;;;;;;;;;;;;;9.66;61.39;93947.53;5113758;28;1991;-60
2023/03/15 08:20:57;;;;;;;;;;;;;;;9.57;60.81;93944.94;5114850;28;980;-60
2023/03/15 08:23:24;;;;;;;;;;;;;;;9.57;60.84;93939.63;5114893;28;1028;-60
2023/03/15 08:25:50;;;;;;;;;;;;;;;9.90;60.21;93935.72;5114494;28;1303;-60
2023/03/15 08:28:16;;;;;;;;;;;;;;;10.10;60.07;93927.97;5114380;28;1226;-60
2023/03/15 08:30:42;;;;;;;;;;;;;;;10.17;59.53;93931.53;5114734;28;1000;-60
2023/03/15 08:33:09;;;;;;;;;;;;;;;10.09;59.36;93939.63;5114597;28;1100;-60
2023/03/15 08:35:35;;;;;;;;;;;;;;;10.13;59.21;93932.91;5114397;28;1072;-60
2023/03/15 08:38:03;;;;;;;;;;;;;;;10.30;58.68;93937.06;5114255;28;1906;-60
2023/03/15 08:40:29;;;;;;;;;;;;;;;10.45;58.11;93936.16;5114395;28;1002;-60
2023/03/15 08:42:56;;;;;;;;;;;;;;;10.61;57.77;93938.59;5114137;28;1012;-60
2023/03/15 08:45:23;;;;;;;;;;;;;;;10.61;57.70;93938.59;5114311;28;968;-60
2023/03/15 08:47:53;;;;;;;;;;;;;;;10.44;58.02;93937.19;5114232;28;1033;-59
2023/03/15 08:50:19;;;;;;;;;;;;;;;10.32;58.33;93934.16;5114091;28;1123;-60
2023/03/15 08:52:45;;;;;;;;;;;;;;;10.32;58.98;93937.69;5114018;28;1037;-58
2023/03/15 08:55:13;;;;;;;;;;;;;;;10.42;58.70;93933.88;5112973;28;981;-59
2023/03/15 08:57:39;;;;;;;;;;;;;;;10.48;58.45;93927.78;5114246;28;1984;-60
2023/03/15 09:00:13;;;;;;;;;;;;;;;10.66;58.11;93933.50;5114278;28;997;-60
2023/03/15 09:02:39;;;;;;;;;;;;;;;10.71;57.96;93922.22;5114016;28;926;-59
2023/03/15 09:05:06;;;;;;;;;;;;;;;10.59;57.92;93927.28;5114221;28;1010;-60
2023/03/15 09:07:32;;;;;;;;;;;;;;;10.60;58.83;93928.09;5114115;28;958;-60
2023/03/15 09:09:58;;;;;;;;;;;;;;;10.74;58.64;93927.22;5114041;28;1028;-59
2023/03/15 09:12:24;;;;;;;;;;;;;;;10.93;57.59;93925.72;5112651;28;1044;-60
2023/03/15 09:14:50;;;;;;;;;;;;;;;11.09;57.26;93924.59;5114092;28;992;-60
2023/03/15 09:17:16;;;;;;;;;;;;;;;11.20;57.10;93908.03;5114001;28;1906;-60
2023/03/15 09:19:42;;;;;;;;;;;;;;;11.50;56.39;93913.97;5113786;28;1052;-60
2023/03/15 09:22:08;;;;;;;;;;;;;;;11.57;54.84;93921.22;5113675;28;1009;-60
2023/03/15 09:24:34;;;;;;;;;;;;;;;11.60;55.67;93910.13;5113845;28;1241;-59
2023/03/15 09:27:01;;;;;;;;;;;;;;;11.60;54.61;93915.47;5112383;28;1654;-60
2023/03/15 09:29:27;;;;;;;;;;;;;;;11.77;55.52;93905.25;5112595;28;1349;-59
2023/03/15 09:31:53;;;;;;;;;;;;;;;11.87;55.21;93911.06;5113906;28;1040;-59
2023/03/15 09:34:19;;;;;;;;;;;;;;;11.83;55.39;93907.97;5113522;28;1116;-58
2023/03/15 09:36:51;;;;;;;;;;;;;;;11.80;55.77;93903.03;5113814;28;995;-59
2023/03/15 09:39:21;;;;;;;;;;;;;;;11.89;55.16;93904.53;5113378;28;1973;-58
2023/03/15 09:41:52;;;;;;;;;;;;;;;12.00;55.18;93902.31;5113800;28;1024;-57
2023/03/15 09:44:38;;;;;;;;;;;;;;;12.05;54.06;93902.53;5113524;28;1036;-58
2023/03/15 09:47:23;;;;;;;;;;;;;;;12.12;54.60;93906.03;5102805;28;1311;-57
2023/03/15 09:50:08;;;;;;;;;;;;;;;12.22;54.77;93900.31;5113459;28;1037;-57
2023/03/15 09:52:43;;;;;;;;;;;;;;;12.29;54.56;93909.19;5113471;28;1272;-58
2023/03/15 09:55:15;;;;;;;;;;;;;;;12.31;54.01;93907.13;5115341;28;1056;-58
2023/03/15 09:57:47;;;;;;;;;;;;;;;12.15;54.39;93905.66;5117507;28;1910;-58
2023/03/15 10:00:20;;;;;;;;;;;;;;;12.18;54.00;93907.94;5117435;28;1096;-59
2023/03/15 10:02:52;;;;;;;;;;;;;;;12.04;53.79;93900.88;5117386;28;1029;-58
2023/03/15 10:05:31;;;;;;;;;;;;;;;12.06;54.26;93905.00;5117712;28;960;-58
2023/03/15 10:07:57;;;;;;;;;;;;;;;12.06;54.80;93905.00;5117506;28;1027;-59
2023/03/15 10:10:27;;;;;;;;;;;;;;;12.10;52.87;93902.75;5117193;28;904;-59
2023/03/15 10:13:22;;;;;;;;;;;;;;;12.09;53.96;93901.91;5117634;28;972;-59
2023/03/15 10:16:01;;;;;;;;;;;;;;;11.96;53.86;93907.22;5062118;28;1173;-60
2023/03/15 10:18:27;;;;;;;;;;;;;;;12.07;53.23;93916.56;5117133;28;1906;-59
2023/03/15 10:20:59;;;;;;;;;;;;;;;12.08;53.53;93912.84;5117298;28;1027;-58
2023/03/15 10:23:33;;;;;;;;;;;;;;;12.07;53.35;93905.84;5115914;28;1024;-60
2023/03/15 10:26:00;;;;;;;;;;;;;;;12.22;52.64;93914.53;5115727;28;1304;-60
2023/03/15 10:28:30;;;;;;;;;;;;;;;12.49;52.48;93915.44;5116654;28;1096;-60
2023/03/15 10:30:59;;;;;;;;;;;;;;;12.54;51.68;93912.16;5116766;28;1021;-60
2023/03/15 10:33:37;;;;;;;;;;;;;;;12.43;51.45;93910.88;5116593;28;1017;-58
2023/03/15 10:36:18;;;;;;;;;;;;;;;12.39;50.47;93900.78;5116921;28;1039;-58
2023/03/15 10:38:44;;;;;;;;;;;;;;;12.53;51.52;93899.75;5116412;28;1973;-59
2023/03/15 10:41:13;;;;;;;;;;;;;;;12.70;50.99;93884.13;5116567;28;1012;-59
2023/03/15 10:43:40;;;;;;;;;;;;;;;12.76;49.93;93888.66;5116467;28;1021;-59
2023/03/15 10:46:10;;;;;;;;;;;;;;;12.47;49.93;93885.31;5115561;28;1209;-58
2023/03/15 10:48:38;;;;;;;;;;;;;;;12.38;49.85;93889.22;5116454;28;1077;-59
2023/03/15 10:51:24;;;;;;;;;;;;;;;12.36;50.62;93890.47;5115187;28;1099;-58
2023/03/15 10:53:56;;;;;;;;;;;;;;;12.26;50.95;93878.28;5116361;28;1033;-58
2023/03/15 10:56:24;;;;;;;;;;;;;;;12.20;51.18;93867.53;5116487;28;1022;-58
2023/03/15 10:58:51;;;;;;;;;;;;;;;12.24;51.85;93869.59;5116371;28;1905;-58
2023/03/15 11:01:28;;;;;;;;;;;;;;;12.15;51.91;93872.69;5116282;28;984;-58
2023/03/15 11:04:14;;;;;;;;;;;;;;;12.16;52.45;93872.47;5116207;28;1041;-59
2023/03/15 11:06:46;;;;;;;;;;;;;;;11.87;53.44;93876.25;5115524;28;1160;-58
2023/03/15 11:09:26;;;;;;;;;;;;;;;11.57;54.56;93865.00;5116067;28;1104;-58
2023/03/15 11:11:55;;;;;;;;;;;;;;;11.36;57.08;93868.59;5116185;27;1035;-59
2023/03/15 11:14:21;;;;;;;;;;;;;;;11.32;56.87;93868.16;5115894;28;1037;-58
2023/03/15 11:16:52;;;;;;;;;;;;;;;11.30;56.88;93878.25;5116235;28;960;-57
2023/03/15 11:19:20;;;;;;;;;;;;;;;11.38;57.69;93877.25;5115971;28;1910;-58
2023/03/15 11:21:48;;;;;;;;;;;;;;;11.58;57.28;93877.38;5115914;28;1042;-57
2023/03/15 11:24:25;;;;;;;;;;;;;;;11.63;57.66;93872.22;5115698;28;1020;-59
2023/03/15 11:26:53;;;;;;;;;;;;;;;11.46;57.52;93875.25;5114372;28;1343;-57
2023/03/15 11:29:36;;;;;;;;;;;;;;;11.50;57.58;93876.50;5115810;28;1052;-58
2023/03/15 11:32:10;;;;;;;;;;;;;;;11.21;57.67;93879.41;5115613;28;1080;-59
2023/03/15 11:34:39;;;;;;;;;;;;;;;10.87;59.13;93876.53;5115519;28;1175;-55
2023/03/15 11:37:12;;;;;;;;;;;;;;;10.61;60.50;93865.63;5115567;28;1019;-59
2023/03/15 11:39:50;;;;;;;;;;;;;;;10.53;62.20;93874.59;5115810;28;1898;-59
2023/03/15 11:42:39;;;;;;;;;;;;;;;10.20;61.71;93875.03;5115381;28;1016;-59
2023/03/15 11:45:11;;;;;;;;;;;;;;;10.03;63.20;93873.63;5086712;28;1300;-57
2023/03/15 11:47:58;;;;;;;;;;;;;;;10.03;63.75;93871.78;5115732;27;1015;-58
2023/03/15 11:50:24;;;;;;;;;;;;;;;9.97;64.77;93878.72;5115192;28;977;-58
2023/03/15 11:52:51;;;;;;;;;;;;;;;9.94;65.76;93871.09;5115082;28;909;-58
2023/03/15 11:55:23;;;;;;;;;;;;;;;9.90;67.32;93869.81;5115326;28;1015;-58
2023/03/15 11:57:49;;;;;;;;;;;;;;;10.01;67.66;93870.34;5115051;28;1996;-58
2023/03/15 12:00:33;;;;;;;;;;;;;;;10.02;67.07;93866.66;5114992;28;979;-60
2023/03/15 12:03:19;;;;;;;;;;;;;;;10.13;66.15;93864.31;5114976;28;1023;-59
2023/03/15 12:05:50;;;;;;;;;;;;;;;10.33;66.20;93869.88;5114897;28;1216;-57
2023/03/15 12:08:17;;;;;;;;;;;;;;;10.21;65.24;93876.72;5114846;28;1030;-58
2023/03/15 12:10:48;;;;;;;;;;;;;;;10.13;65.28;93868.81;5115153;28;1011;-58
2023/03/15 12:13:34;;;;;;;;;;;;;;;10.00;65.74;93866.00;5114922;27;993;-58
2023/03/15 12:16:04;;;;;;;;;;;;;;;10.11;65.19;93876.19;5113985;28;1036;-58
2023/03/15 12:18:33;;;;;;;;;;;;;;;10.05;65.18;93880.44;5114105;28;1902;-58
2023/03/15 12:21:13;;;;;;;;;;;;;;;10.11;64.74;93869.03;5114815;28;980;-58
2023/03/15 12:23:45;;;;;;;;;;;;;;;10.34;65.14;93873.38;5114802;28;992;-56
2023/03/15 12:26:14;;;;;;;;;;;;;;;10.51;63.45;93863.28;5114423;28;1357;-58
2023/03/15 12:28:48;;;;;;;;;;;;;;;10.40;63.51;93855.78;5114500;28;1346;-58
2023/03/15 12:31:14;;;;;;;;;;;;;;;10.47;62.95;93851.28;5114632;28;1056;-58
2023/03/15 12:33:49;;;;;;;;;;;;;;;10.48;62.55;93850.28;5113461;28;1016;-57
2023/03/15 12:36:18;;;;;;;;;;;;;;;10.60;62.72;93855.94;5114543;28;961;-57
2023/03/15 12:38:53;;;;;;;;;;;;;;;10.64;62.96;93852.69;5114289;28;1996;-58
2023/03/15 12:41:39;;;;;;;;;;;;;;;10.61;62.70;93853.06;5113126;28;1037;-58
2023/03/15 12:44:18;;;;;;;;;;;;;;;10.66;62.22;93847.97;5114363;28;1103;-57
2023/03/15 12:46:44;;;;;;;;;;;;;;;10.69;62.85;93842.22;5114336;28;1056;-58
2023/03/15 12:49:10;;;;;;;;;;;;;;;10.65;62.48;93854.31;5114429;28;969;-57
2023/03/15 12:52:03;;;;;;;;;;;;;;;10.68;62.92;93842.41;5114085;28;1115;-57
2023/03/15 12:54:41;;;;;;;;;;;;;;;10.51;62.81;93833.88;5111388;28;1181;-57
2023/03/15 12:57:12;;;;;;;;;;;;;;;10.53;64.11;93834.50;5114680;28;985;-58
2023/03/15 12:59:43;;;;;;;;;;;;;;;10.67;63.47;93835.44;5114294;28;1979;-58
2023/03/15 13:02:22;;;;;;;;;;;;;;;10.92;62.57;93844.66;5113037;28;969;-57
2023/03/15 13:04:48;;;;;;;;;;;;;;;10.83;63.14;93845.84;5114114;28;1048;-58
2023/03/15 13:07:31;;;;;;;;;;;;;;;10.55;63.07;93859.19;5113917;28;1015;-57
2023/03/15 13:10:16;;;;;;;;;;;;;;;10.14;64.29;93857.13;5113797;28;1120;-57
2023/03/15 13:12:50;;;;;;;;;;;;;;;10.13;64.24;93866.97;5114053;28;981;-57
2023/03/15 13:15:20;;;;;;;;;;;;;;;10.03;64.72;93858.44;5114091;28;992;-58
2023/03/15 13:17:51;;;;;;;;;;;;;;;10.03;64.93;93849.59;5114041;28;1915;-57